Aviation Digital Data Service (ADDS)

Output produced by METARs form (0947 UTC 22 September 2017)
found at http://www.aviationweather.gov/adds/metars/
 
KSMO 220851Z AUTO 05003KT 10SM CLR 16/13 A2984 RMK AO2 SLP103 T01610128 53001
KSMO 220537Z 2206/2306 VRB03KT P6SM SKC 
     FM221400 08005KT P6SM SCT025 
     FM221800 22008KT P6SM SKC 
     FM222100 24010KT P6SM SKC 
     FM230300 VRB03KT P6SM SKC
       
KLAX 220853Z 08007KT 10SM CLR 16/12 A2984 RMK AO2 SLP100 T01610122 53001
KLAX 220537Z 2206/2312 08006KT P6SM FEW040 
     FM220900 VRB03KT P6SM SCT025 
     FM221800 26010KT P6SM SCT025 
     FM222100 26015KT P6SM SKC 
     FM230400 26009KT P6SM SKC 
     FM230900 VRB03KT P6SM SCT025
       
KVNY 220851Z AUTO 11004KT 10SM CLR 14/12 A2983 RMK AO2 SLP096 T01440117 57002
KVNY 220537Z 2206/2306 VRB04KT P6SM SKC 
     FM222000 17008KT P6SM SKC 
     FM230300 VRB03KT P6SM SKC
       
KCMA 220855Z AUTO 07003KT 10SM CLR 14/10 A2983 RMK AO2 SLP110 T01390100 53004
KCMA 220540Z 2206/2306 05005KT P6SM SKC 
     FM221800 25008KT P6SM SKC 
     FM222100 25012KT P6SM SKC 
     FM230300 25006KT P6SM SKC